createdAt,value
2022-08-02T00:00:40.922Z,2.97
2022-08-02T00:03:09.056Z,2.57
2022-08-02T00:05:37.382Z,3.60
2022-08-02T00:08:05.803Z,2.30
2022-08-02T00:10:35.580Z,2.30
2022-08-02T00:13:05.333Z,2.30
2022-08-02T00:15:33.781Z,2.83
2022-08-02T00:18:01.836Z,5.40
2022-08-02T00:20:30.760Z,5.60
2022-08-02T00:22:58.882Z,2.70
2022-08-02T00:25:28.790Z,2.00
2022-08-02T00:27:58.243Z,3.43
2022-08-02T00:30:26.549Z,2.00
2022-08-02T00:32:54.598Z,3.43
2022-08-02T00:35:22.638Z,2.70
2022-08-02T00:37:50.719Z,4.03
2022-08-02T00:40:23.400Z,2.63
2022-08-02T00:43:06.737Z,2.23
2022-08-02T00:46:02.297Z,2.67
2022-08-02T00:48:24.029Z,4.30
2022-08-02T00:51:23.803Z,2.77
2022-08-02T00:53:51.870Z,2.83
2022-08-02T00:56:26.541Z,3.67
2022-08-02T00:58:55.970Z,2.73
2022-08-02T01:01:38.610Z,5.17
2022-08-02T01:04:31.447Z,4.33
2022-08-02T01:07:13.318Z,2.90
2022-08-02T01:09:43.603Z,2.83
2022-08-02T01:12:12.855Z,3.77
2022-08-02T01:14:44.039Z,3.60
2022-08-02T01:17:17.692Z,3.60
2022-08-02T01:19:55.511Z,4.90
2022-08-02T01:23:07.125Z,4.17
2022-08-02T01:26:00.909Z,4.13
2022-08-02T01:28:39.212Z,4.47
2022-08-02T01:31:15.502Z,5.07
2022-08-02T01:33:49.759Z,5.77
2022-08-02T01:36:21.459Z,3.57
2022-08-02T01:38:51.836Z,6.60
2022-08-02T01:41:22.876Z,2.70
2022-08-02T01:43:59.522Z,4.50
2022-08-02T01:46:30.333Z,4.70
2022-08-02T01:49:01.057Z,4.83
2022-08-02T01:51:47.984Z,3.87
2022-08-02T01:54:19.588Z,3.63
2022-08-02T01:56:50.271Z,6.07
2022-08-02T01:59:37.036Z,5.40
2022-08-02T02:02:09.391Z,3.97
2022-08-02T02:04:39.325Z,4.63
2022-08-02T02:07:08.472Z,5.03
2022-08-02T02:09:47.875Z,5.63
2022-08-02T02:12:20.949Z,5.43
2022-08-02T02:14:52.248Z,5.93
2022-08-02T02:17:50.622Z,4.73
2022-08-02T02:20:15.022Z,4.83
2022-08-02T02:22:44.012Z,5.53
2022-08-02T02:25:15.518Z,5.37
2022-08-02T02:27:49.837Z,5.37
2022-08-02T02:30:20.063Z,5.90
2022-08-02T02:32:49.975Z,9.00
2022-08-02T02:35:20.617Z,6.80
2022-08-02T02:37:50.843Z,8.37
2022-08-02T02:40:21.205Z,4.83
2022-08-02T02:42:50.918Z,6.27
2022-08-02T02:45:22.368Z,8.13
2022-08-02T02:47:51.885Z,7.43
2022-08-02T02:50:21.843Z,5.33
2022-08-02T02:52:51.472Z,10.13
2022-08-02T02:55:20.196Z,9.73
2022-08-02T02:57:49.131Z,7.67
2022-08-02T03:00:17.677Z,11.47
2022-08-02T03:02:47.530Z,8.60
2022-08-02T03:05:16.933Z,6.93
2022-08-02T03:07:45.058Z,6.67
2022-08-02T03:10:13.295Z,7.53
2022-08-02T03:12:42.992Z,8.30
2022-08-02T03:15:14.193Z,8.37
2022-08-02T03:17:43.554Z,7.90
2022-08-02T03:20:15.668Z,11.10
2022-08-02T03:22:44.872Z,9.27
2022-08-02T03:25:14.496Z,10.00
2022-08-02T03:27:42.966Z,10.43
2022-08-02T03:30:15.636Z,7.60
2022-08-02T03:32:46.418Z,10.33
2022-08-02T03:35:23.433Z,7.60
2022-08-02T03:37:55.479Z,7.37
2022-08-02T03:40:24.274Z,6.60
2022-08-02T03:42:52.795Z,6.23
2022-08-02T03:45:21.472Z,7.70
2022-08-02T03:47:50.165Z,10.43
2022-08-02T03:50:23.056Z,7.60
2022-08-02T03:52:52.155Z,4.97
2022-08-02T03:55:20.437Z,10.00
2022-08-02T03:57:48.608Z,8.60
2022-08-02T04:00:22.608Z,10.37
2022-08-02T04:02:52.494Z,10.90
2022-08-02T04:05:22.240Z,7.30
2022-08-02T04:08:34.266Z,12.27
2022-08-02T04:11:04.852Z,14.73
2022-08-02T04:13:37.107Z,10.97
2022-08-02T04:16:09.727Z,8.77
2022-08-02T04:18:44.525Z,8.17
2022-08-02T04:21:18.722Z,7.50
2022-08-02T04:23:48.896Z,7.97
2022-08-02T04:26:17.670Z,6.70
2022-08-02T04:28:46.864Z,10.03
2022-08-02T04:31:15.752Z,9.23
2022-08-02T04:33:44.157Z,7.13
2022-08-02T04:36:15.155Z,8.70
2022-08-02T04:38:59.352Z,12.30
2022-08-02T04:41:43.758Z,8.37
2022-08-02T04:44:12.968Z,7.90
2022-08-02T04:46:42.921Z,5.63
2022-08-02T04:49:19.877Z,8.50
2022-08-02T04:51:49.315Z,10.10
2022-08-02T04:54:17.426Z,5.77
2022-08-02T04:56:45.507Z,8.80
2022-08-02T04:59:13.509Z,5.97
2022-08-02T05:01:42.627Z,8.57
2022-08-02T05:04:10.756Z,8.33
2022-08-02T05:06:38.760Z,8.63
2022-08-02T05:09:08.280Z,7.27
2022-08-02T05:11:37.452Z,8.63
2022-08-02T05:14:07.838Z,7.17
2022-08-02T05:16:37.057Z,8.93
2022-08-02T05:19:06.003Z,8.67
2022-08-02T05:21:34.062Z,9.37
2022-08-02T05:24:02.199Z,5.67
2022-08-02T05:26:31.691Z,6.57
2022-08-02T05:28:59.723Z,7.80
2022-08-02T05:31:27.686Z,11.17
2022-08-02T05:33:55.866Z,8.57
2022-08-02T05:36:24.108Z,6.77
2022-08-02T05:39:04.658Z,8.50
2022-08-02T05:41:34.413Z,8.37
2022-08-02T05:44:02.459Z,9.63
2022-08-02T05:46:30.608Z,7.87
2022-08-02T05:48:58.780Z,5.70
2022-08-02T05:51:32.485Z,8.90
2022-08-02T05:54:07.994Z,8.70
2022-08-02T05:56:44.776Z,8.37
2022-08-02T05:59:19.297Z,8.63
2022-08-02T06:01:50.222Z,9.60
2022-08-02T06:04:26.138Z,7.27
2022-08-02T06:07:22.840Z,10.83
2022-08-02T06:09:52.553Z,8.57
2022-08-02T06:12:26.436Z,6.30
2022-08-02T06:14:57.712Z,4.37
2022-08-02T06:17:26.491Z,5.97
2022-08-02T06:20:07.275Z,6.73
2022-08-02T06:22:39.514Z,4.80
2022-08-02T06:25:48.429Z,4.83
2022-08-02T06:27:59.132Z,5.37
2022-08-02T06:30:27.874Z,3.13
2022-08-02T06:32:56.618Z,4.20
2022-08-02T06:35:27.140Z,4.40
2022-08-02T06:38:16.627Z,4.10
2022-08-02T06:40:47.442Z,6.40
2022-08-02T06:43:20.012Z,6.07
2022-08-02T06:45:48.000Z,5.60
2022-08-02T06:48:16.148Z,5.47
2022-08-02T06:50:44.489Z,4.03
2022-08-02T06:53:13.416Z,4.20
2022-08-02T06:55:44.440Z,4.17
2022-08-02T06:58:13.319Z,5.27
2022-08-02T07:00:44.444Z,7.73
2022-08-02T07:03:12.562Z,4.80
2022-08-02T07:05:41.884Z,4.30
2022-08-02T07:08:10.064Z,5.67
2022-08-02T07:10:38.087Z,4.10
2022-08-02T07:13:06.228Z,4.23
2022-08-02T07:15:34.244Z,5.80
2022-08-02T07:18:03.729Z,5.70
2022-08-02T07:20:32.741Z,5.60
2022-08-02T07:23:03.973Z,6.00
2022-08-02T07:26:02.357Z,4.77
2022-08-02T07:28:24.302Z,3.43
2022-08-02T07:30:53.392Z,4.40
2022-08-02T07:33:37.819Z,5.30
2022-08-02T07:36:09.863Z,4.13
2022-08-02T07:38:45.478Z,3.00
2022-08-02T07:41:19.885Z,2.57
2022-08-02T07:43:49.898Z,3.83
2022-08-02T07:46:17.899Z,3.53
2022-08-02T07:48:48.536Z,3.10
2022-08-02T07:51:17.370Z,3.23
2022-08-02T07:53:51.105Z,3.30
2022-08-02T07:56:30.120Z,3.73
2022-08-02T07:58:58.145Z,2.70
2022-08-02T08:01:26.159Z,3.93
2022-08-02T08:04:05.755Z,5.63
2022-08-02T08:06:33.775Z,3.43
2022-08-02T08:09:01.793Z,4.30
2022-08-02T08:11:29.860Z,3.20
2022-08-02T08:13:58.142Z,3.10
2022-08-02T08:16:29.189Z,2.40
2022-08-02T08:18:57.695Z,3.93
2022-08-02T08:21:27.139Z,3.23
2022-08-02T08:23:58.890Z,3.23
2022-08-02T08:26:26.879Z,3.23
2022-08-02T08:29:10.895Z,3.73
2022-08-02T08:31:39.172Z,2.47
2022-08-02T08:34:07.559Z,3.57
2022-08-02T08:36:38.023Z,3.67
2022-08-02T08:39:06.321Z,6.53
2022-08-02T08:41:34.364Z,2.33
2022-08-02T08:44:19.146Z,2.33
2022-08-02T08:46:50.400Z,2.20
2022-08-02T08:49:26.793Z,1.87
2022-08-02T08:51:58.014Z,4.67
2022-08-02T08:54:29.201Z,1.83
2022-08-02T08:57:02.352Z,1.57
2022-08-02T08:59:30.403Z,3.03
2022-08-02T09:02:20.355Z,3.77
2022-08-02T09:04:55.303Z,3.30
2022-08-02T09:07:25.075Z,3.10
2022-08-02T09:09:53.073Z,4.70
2022-08-02T09:12:25.188Z,2.20
2022-08-02T09:14:55.019Z,1.97
2022-08-02T09:17:22.959Z,1.80
2022-08-02T09:20:08.571Z,3.43
2022-08-02T09:22:38.100Z,2.73
2022-08-02T09:25:16.560Z,4.27
2022-08-02T09:27:44.666Z,3.17
2022-08-02T09:30:16.853Z,1.60
2022-08-02T09:32:50.081Z,3.80
2022-08-02T09:36:06.335Z,4.60
2022-08-02T09:38:26.097Z,2.50
2022-08-02T09:40:54.853Z,4.73
2022-08-02T09:43:23.154Z,2.13
2022-08-02T09:45:51.176Z,3.40
2022-08-02T09:48:19.249Z,3.70
2022-08-02T09:50:47.475Z,2.47
2022-08-02T09:53:15.977Z,2.37
2022-08-02T09:55:56.190Z,3.73
2022-08-02T09:58:24.366Z,2.13
2022-08-02T10:00:56.188Z,3.17
2022-08-02T10:03:27.388Z,5.63
2022-08-02T10:06:04.750Z,2.47
2022-08-02T10:08:34.359Z,5.00
2022-08-02T10:11:06.213Z,4.50
2022-08-02T10:13:35.682Z,2.77
2022-08-02T10:16:06.275Z,4.30
2022-08-02T10:18:41.808Z,3.83
2022-08-02T10:21:15.604Z,3.10
2022-08-02T10:23:46.238Z,3.33
2022-08-02T10:26:20.305Z,1.80
2022-08-02T10:28:50.762Z,2.67
2022-08-02T10:31:25.202Z,2.97
2022-08-02T10:33:55.117Z,2.83
2022-08-02T10:36:27.351Z,2.60
2022-08-02T10:38:58.799Z,2.87
2022-08-02T10:41:45.189Z,2.70
2022-08-02T10:44:26.217Z,1.60
2022-08-02T10:47:35.410Z,1.87
2022-08-02T10:50:04.042Z,2.40
2022-08-02T10:52:32.684Z,1.93
2022-08-02T10:55:03.627Z,1.53
2022-08-02T10:57:48.783Z,3.83
2022-08-02T11:00:28.535Z,2.17
2022-08-02T11:02:56.670Z,2.13
2022-08-02T11:05:42.124Z,3.63
2022-08-02T11:08:21.020Z,2.30
2022-08-02T11:10:49.755Z,2.23
2022-08-02T11:13:20.827Z,1.47
2022-08-02T11:15:59.318Z,1.80
2022-08-02T11:19:00.925Z,1.83
2022-08-02T11:21:31.363Z,1.90
2022-08-02T11:24:29.437Z,2.53
2022-08-02T11:26:59.116Z,1.37
2022-08-02T11:29:38.410Z,2.10
2022-08-02T11:32:08.559Z,1.60
2022-08-02T11:34:38.209Z,1.40
2022-08-02T11:37:07.756Z,1.63
2022-08-02T11:39:37.326Z,2.63
2022-08-02T11:42:09.492Z,2.33
2022-08-02T11:44:42.647Z,1.67
2022-08-02T11:47:10.811Z,1.63
2022-08-02T11:49:39.292Z,1.77
2022-08-02T11:52:11.052Z,1.63
2022-08-02T11:54:43.243Z,2.87
2022-08-02T11:57:23.884Z,2.67
2022-08-02T11:59:54.177Z,1.57
2022-08-02T12:02:23.728Z,1.43
2022-08-02T12:04:57.909Z,2.30
2022-08-02T12:07:34.773Z,1.30
2022-08-02T12:10:21.421Z,1.63
2022-08-02T12:12:54.208Z,1.20
2022-08-02T12:15:37.420Z,2.17
2022-08-02T12:18:28.144Z,1.90
2022-08-02T12:20:57.289Z,1.33
2022-08-02T12:23:25.566Z,1.20
2022-08-02T12:26:25.368Z,1.10
2022-08-02T12:28:57.757Z,2.30
2022-08-02T12:31:55.842Z,2.23
2022-08-02T12:34:31.113Z,1.40
2022-08-02T12:37:07.246Z,1.13
2022-08-02T12:39:50.008Z,1.40
2022-08-02T12:42:19.461Z,1.40
2022-08-02T12:44:55.675Z,1.37
2022-08-02T12:47:23.796Z,1.37
2022-08-02T12:50:17.160Z,1.37
2022-08-02T12:52:47.050Z,1.60
2022-08-02T12:55:19.936Z,2.47
2022-08-02T12:58:00.374Z,1.83
2022-08-02T13:00:32.486Z,1.30
2022-08-02T13:03:01.720Z,1.20
2022-08-02T13:05:57.030Z,1.67
2022-08-02T13:08:22.056Z,2.70
2022-08-02T13:10:50.670Z,1.40
2022-08-02T13:13:46.040Z,2.00
2022-08-02T13:16:14.230Z,1.57
2022-08-02T13:18:42.579Z,2.57
2022-08-02T13:21:23.535Z,2.13
2022-08-02T13:23:59.399Z,2.17
2022-08-02T13:26:31.369Z,2.87
2022-08-02T13:29:00.861Z,1.47
2022-08-02T13:31:36.468Z,1.50
2022-08-02T13:34:06.503Z,1.40
2022-08-02T13:36:36.986Z,2.33
2022-08-02T13:39:05.862Z,1.63
2022-08-02T13:41:34.265Z,1.37
2022-08-02T13:44:10.016Z,1.30
2022-08-02T13:46:44.989Z,1.73
2022-08-02T13:49:19.901Z,3.03
2022-08-02T13:51:48.519Z,2.07
2022-08-02T13:54:20.868Z,2.70
2022-08-02T13:56:49.043Z,2.50
2022-08-02T13:59:56.446Z,1.13
2022-08-02T14:02:23.595Z,1.67
2022-08-02T14:04:51.686Z,1.33
2022-08-02T14:07:19.731Z,2.37
2022-08-02T14:09:48.063Z,1.80
2022-08-02T14:12:16.781Z,1.83
2022-08-02T14:14:46.771Z,3.03
2022-08-02T14:17:14.825Z,1.97
2022-08-02T14:19:42.897Z,2.80
2022-08-02T14:22:12.381Z,3.43
2022-08-02T14:24:41.718Z,2.07
2022-08-02T14:27:10.548Z,2.80
2022-08-02T14:29:38.531Z,1.40
2022-08-02T14:32:08.773Z,1.50
2022-08-02T14:34:36.859Z,2.50
2022-08-02T14:37:04.941Z,3.40
2022-08-02T14:39:43.162Z,3.10
2022-08-02T14:42:21.818Z,1.80
2022-08-02T14:44:49.878Z,1.60
2022-08-02T14:47:19.226Z,3.30
2022-08-02T14:49:50.062Z,1.40
2022-08-02T14:52:19.663Z,2.57
2022-08-02T14:54:47.748Z,2.70
2022-08-02T14:57:16.364Z,2.30
2022-08-02T14:59:44.597Z,2.70
2022-08-02T15:05:03.967Z,3.43
2022-08-02T15:07:31.985Z,3.50
2022-08-02T15:09:59.926Z,2.80
2022-08-02T15:12:29.768Z,1.90
2022-08-02T15:14:57.983Z,1.43
2022-08-02T15:17:44.802Z,1.73
2022-08-02T15:20:24.436Z,2.43
2022-08-02T15:22:53.036Z,1.43
2022-08-02T15:25:21.276Z,1.30
2022-08-02T15:27:49.456Z,1.10
2022-08-02T15:30:22.144Z,4.40
2022-08-02T15:32:53.136Z,1.37
2022-08-02T15:35:22.849Z,2.23
2022-08-02T15:37:50.888Z,2.57
2022-08-02T15:40:25.321Z,2.07
2022-08-02T15:42:53.615Z,1.47
2022-08-02T15:45:21.587Z,2.57
2022-08-02T15:47:50.702Z,1.87
2022-08-02T15:50:22.648Z,3.77
2022-08-02T15:52:52.239Z,5.37
2022-08-02T15:55:20.514Z,4.10
2022-08-02T15:57:48.539Z,3.17
2022-08-02T16:00:18.951Z,4.93
2022-08-02T16:02:47.742Z,3.07
2022-08-02T16:05:18.085Z,3.90
2022-08-02T16:07:46.879Z,3.30
2022-08-02T16:10:18.514Z,2.07
2022-08-02T16:12:48.162Z,3.90
2022-08-02T16:15:16.304Z,3.33
2022-08-02T16:17:49.020Z,4.87
2022-08-02T16:20:22.923Z,5.57
2022-08-02T16:22:50.934Z,4.97
2022-08-02T16:25:20.535Z,4.47
2022-08-02T16:27:59.596Z,5.17
2022-08-02T16:30:34.819Z,4.90
2022-08-02T16:33:03.071Z,4.80
2022-08-02T16:35:31.073Z,5.30
2022-08-02T16:37:59.192Z,2.77
2022-08-02T16:40:28.884Z,3.07
2022-08-02T16:42:56.873Z,4.17
2022-08-02T16:45:25.020Z,2.80
2022-08-02T16:47:55.799Z,3.77
2022-08-02T16:50:27.125Z,1.90
2022-08-02T16:52:57.134Z,3.37
2022-08-02T16:55:29.299Z,2.63
2022-08-02T16:58:01.174Z,2.43
2022-08-02T17:00:29.449Z,3.60
2022-08-02T17:02:59.169Z,3.80
2022-08-02T17:05:29.814Z,7.87
2022-08-02T17:08:17.313Z,3.60
2022-08-02T17:10:45.843Z,2.97
2022-08-02T17:13:20.647Z,3.93
2022-08-02T17:16:16.133Z,5.23
2022-08-02T17:18:42.578Z,3.83
2022-08-02T17:21:11.776Z,3.53
2022-08-02T17:24:06.339Z,2.80
2022-08-02T17:26:30.071Z,3.93
2022-08-02T17:29:17.950Z,2.77
2022-08-02T17:32:04.671Z,2.60
2022-08-02T17:34:34.785Z,3.33
2022-08-02T17:37:05.687Z,4.30
2022-08-02T17:39:44.209Z,4.67
2022-08-02T17:42:23.043Z,3.67
2022-08-02T17:44:54.125Z,5.53
2022-08-02T17:47:22.721Z,3.67
2022-08-02T17:50:01.394Z,3.97
2022-08-02T17:52:51.063Z,3.37
2022-08-02T17:55:19.877Z,2.90
2022-08-02T17:57:57.579Z,5.10
2022-08-02T18:00:34.093Z,2.40
2022-08-02T18:03:05.897Z,3.73
2022-08-02T18:05:40.165Z,4.03
2022-08-02T18:08:22.748Z,4.43
2022-08-02T18:10:53.758Z,2.90
2022-08-02T18:13:23.430Z,2.77
2022-08-02T18:15:59.351Z,4.33
2022-08-02T18:18:34.465Z,5.30
2022-08-02T18:21:15.349Z,3.27
2022-08-02T18:23:49.400Z,4.20
2022-08-02T18:26:20.741Z,2.00
2022-08-02T18:28:49.255Z,4.70
2022-08-02T18:31:22.993Z,3.80
2022-08-02T18:33:57.244Z,5.20
2022-08-02T18:36:29.254Z,4.37
2022-08-02T18:38:57.355Z,3.90
2022-08-02T18:41:25.561Z,2.40
2022-08-02T18:43:56.713Z,4.43
2022-08-02T18:46:30.373Z,3.70
2022-08-02T18:49:13.307Z,2.93
2022-08-02T18:51:43.503Z,4.13
2022-08-02T18:54:11.686Z,3.97
2022-08-02T18:56:47.220Z,4.40
2022-08-02T18:59:18.089Z,3.87
2022-08-02T19:01:50.763Z,4.13
2022-08-02T19:04:27.141Z,2.90
2022-08-02T19:06:56.615Z,3.50
2022-08-02T19:09:49.780Z,4.97
2022-08-02T19:12:31.747Z,2.70
2022-08-02T19:14:59.824Z,3.50
2022-08-02T19:17:55.198Z,3.87
2022-08-02T19:20:22.468Z,4.50
2022-08-02T19:22:53.835Z,4.47
2022-08-02T19:25:50.073Z,5.17
2022-08-02T19:28:26.066Z,6.07
2022-08-02T19:30:56.844Z,3.23
2022-08-02T19:34:05.938Z,5.33
2022-08-02T19:36:27.990Z,2.03
2022-08-02T19:38:58.340Z,5.67
2022-08-02T19:41:26.797Z,1.80
2022-08-02T19:44:25.538Z,6.37
2022-08-02T19:46:49.189Z,4.13
2022-08-02T19:49:39.245Z,2.67
2022-08-02T19:52:20.295Z,4.77
2022-08-02T19:54:54.624Z,3.70
2022-08-02T19:57:25.115Z,4.10
2022-08-02T19:59:54.115Z,4.93
2022-08-02T20:02:25.413Z,6.07
2022-08-02T20:04:55.100Z,5.83
2022-08-02T20:10:13.270Z,2.10
2022-08-02T20:12:54.953Z,4.37
2022-08-02T20:15:23.436Z,3.83
2022-08-02T20:18:11.485Z,2.90
2022-08-02T20:20:44.259Z,4.30
2022-08-02T20:23:34.026Z,4.00
2022-08-02T20:26:02.801Z,4.10
2022-08-02T20:28:32.050Z,2.73
2022-08-02T20:31:07.017Z,2.77
2022-08-02T20:33:55.365Z,2.33
2022-08-02T20:36:26.761Z,2.33
2022-08-02T20:38:55.491Z,3.73
2022-08-02T20:41:46.346Z,2.00
2022-08-02T20:44:30.603Z,5.43
2022-08-02T20:47:02.170Z,3.47
2022-08-02T20:49:41.429Z,4.53
2022-08-02T20:52:23.593Z,2.87
2022-08-02T20:54:52.524Z,1.93
2022-08-02T20:57:48.970Z,5.03
2022-08-02T21:00:28.931Z,2.43
2022-08-02T21:02:56.955Z,1.17
2022-08-02T21:05:54.027Z,2.27
2022-08-02T21:08:22.248Z,1.70
2022-08-02T21:10:53.408Z,3.97
2022-08-02T21:13:46.633Z,2.37
2022-08-02T21:16:25.043Z,4.33
2022-08-02T21:18:59.764Z,2.17
2022-08-02T21:21:29.805Z,6.87
2022-08-02T21:24:00.244Z,2.30
2022-08-02T21:26:35.492Z,1.73
2022-08-02T21:29:04.473Z,2.57
2022-08-02T21:31:36.103Z,3.20
2022-08-02T21:34:21.686Z,2.23
2022-08-02T21:39:37.111Z,4.20
2022-08-02T21:42:05.309Z,1.57
2022-08-02T21:44:36.621Z,2.53
2022-08-02T21:47:09.569Z,3.07
2022-08-02T21:50:12.841Z,3.77
2022-08-02T21:52:30.499Z,1.60
2022-08-02T21:55:04.255Z,1.90
2022-08-02T21:57:34.773Z,1.60
2022-08-02T22:00:04.472Z,2.70
2022-08-02T22:02:33.475Z,2.97
2022-08-02T22:05:02.673Z,1.03
2022-08-02T22:07:38.207Z,1.90
2022-08-02T22:10:10.254Z,4.07
2022-08-02T22:12:40.350Z,2.30
2022-08-02T22:15:10.693Z,1.83
2022-08-02T22:17:51.349Z,1.97
2022-08-02T22:20:22.269Z,3.10
2022-08-02T22:22:51.466Z,2.30
2022-08-02T22:25:36.650Z,3.80
2022-08-02T22:28:36.060Z,3.40
2022-08-02T22:31:04.655Z,3.10
2022-08-02T22:34:00.811Z,1.40
2022-08-02T22:36:30.159Z,3.40
2022-08-02T22:38:58.470Z,3.43
2022-08-02T22:42:02.010Z,3.27
2022-08-02T22:44:18.519Z,2.30
2022-08-02T22:47:07.506Z,3.33
2022-08-02T22:49:51.924Z,2.37
2022-08-02T22:52:24.389Z,3.77
2022-08-02T22:54:52.515Z,4.23
2022-08-02T22:57:30.677Z,2.23
2022-08-02T22:58:54.483Z,4.47
2022-08-02T23:00:00.135Z,2.87
2022-08-02T23:02:28.443Z,2.10
2022-08-02T23:04:58.344Z,2.77
2022-08-02T23:07:26.390Z,3.63
2022-08-02T23:09:54.471Z,1.80
2022-08-02T23:12:28.479Z,4.37
2022-08-02T23:14:56.452Z,3.20
2022-08-02T23:17:42.123Z,2.87
2022-08-02T23:20:11.288Z,4.23
2022-08-02T23:22:39.356Z,1.43
2022-08-02T23:25:08.860Z,2.57
2022-08-02T23:27:38.307Z,3.20
2022-08-02T23:30:08.259Z,4.43
2022-08-02T23:32:40.099Z,4.10
2022-08-02T23:35:09.334Z,3.30
2022-08-02T23:37:58.877Z,1.30
2022-08-02T23:40:38.946Z,1.63
2022-08-02T23:43:14.271Z,3.17
2022-08-02T23:45:44.586Z,1.80
2022-08-02T23:48:13.066Z,2.57
2022-08-02T23:50:41.191Z,3.63
2022-08-02T23:53:09.207Z,1.60
2022-08-02T23:55:37.184Z,2.23
2022-08-02T23:58:05.136Z,1.90
